createdAt,value
2019-05-06T00:01:54.100Z,61.60
2019-05-06T00:04:24.682Z,61.30
2019-05-06T00:06:54.793Z,61.30
2019-05-06T00:09:24.218Z,61.30
2019-05-06T00:11:54.285Z,61.40
2019-05-06T00:14:24.234Z,61.40
2019-05-06T00:16:55.095Z,61.50
2019-05-06T00:19:24.649Z,61.30
2019-05-06T00:21:54.123Z,61.40
2019-05-06T00:24:25.213Z,61.40
2019-05-06T00:27:19.258Z,61.60
2019-05-06T00:29:48.306Z,61.60
2019-05-06T00:32:17.908Z,61.60
2019-05-06T00:34:47.082Z,61.70
2019-05-06T00:37:16.217Z,61.80
2019-05-06T00:39:59.927Z,61.80
2019-05-06T00:42:31.198Z,61.90
2019-05-06T00:45:00.265Z,61.90
2019-05-06T00:47:29.759Z,61.90
2019-05-06T00:49:58.909Z,62.10
2019-05-06T00:52:28.269Z,62.00
2019-05-06T00:54:57.657Z,62.10
2019-05-06T00:57:45.430Z,62.00
2019-05-06T01:00:16.134Z,62.10
2019-05-06T01:02:45.222Z,62.20
2019-05-06T01:05:15.054Z,62.30
2019-05-06T01:07:44.540Z,62.40
2019-05-06T01:10:14.774Z,62.40
2019-05-06T01:12:49.306Z,62.50
2019-05-06T01:15:19.887Z,62.40
2019-05-06T01:17:49.159Z,62.40
2019-05-06T01:20:18.140Z,62.40
2019-05-06T01:22:47.593Z,62.40
2019-05-06T01:25:17.367Z,62.40
2019-05-06T01:27:46.791Z,62.40
2019-05-06T01:30:16.479Z,62.40
2019-05-06T01:32:45.280Z,62.30
2019-05-06T01:35:14.240Z,62.30
2019-05-06T01:37:45.518Z,62.30
2019-05-06T01:40:23.874Z,62.40
2019-05-06T01:42:58.201Z,62.40
2019-05-06T01:45:27.040Z,62.40
2019-05-06T01:47:56.648Z,62.40
2019-05-06T01:50:25.623Z,62.40
2019-05-06T01:52:54.715Z,63.20
2019-05-06T01:55:23.925Z,62.60
2019-05-06T01:57:54.573Z,62.60
2019-05-06T02:00:23.810Z,62.70
2019-05-06T02:02:54.730Z,62.60
2019-05-06T02:05:24.306Z,62.60
2019-05-06T02:07:55.067Z,62.70
2019-05-06T02:10:24.245Z,62.70
2019-05-06T02:12:54.120Z,62.70
2019-05-06T02:15:23.907Z,62.80
2019-05-06T02:17:57.361Z,62.80
2019-05-06T02:20:26.873Z,63.00
2019-05-06T02:23:04.205Z,62.90
2019-05-06T02:25:38.502Z,63.00
2019-05-06T02:28:07.494Z,63.00
2019-05-06T02:31:11.059Z,63.00
2019-05-06T02:33:58.933Z,63.00
2019-05-06T02:36:46.939Z,62.90
2019-05-06T02:39:16.109Z,62.90
2019-05-06T02:41:45.282Z,63.00
2019-05-06T02:44:14.219Z,62.90
2019-05-06T02:46:45.710Z,63.20
2019-05-06T02:49:24.813Z,63.10
2019-05-06T02:51:53.944Z,63.20
2019-05-06T02:54:23.617Z,63.30
2019-05-06T02:56:53.383Z,63.20
2019-05-06T02:59:24.088Z,63.30
2019-05-06T03:01:54.159Z,63.30
2019-05-06T03:04:23.826Z,63.30
2019-05-06T03:06:53.391Z,63.30
2019-05-06T03:09:23.431Z,63.30
2019-05-06T03:11:54.216Z,63.30
2019-05-06T03:14:23.686Z,63.80
2019-05-06T03:16:54.000Z,63.40
2019-05-06T03:19:24.451Z,63.60
2019-05-06T03:22:23.969Z,63.60
2019-05-06T03:24:57.475Z,63.50
2019-05-06T03:27:26.597Z,63.50
2019-05-06T03:29:55.733Z,63.70
2019-05-06T03:32:30.771Z,63.50
2019-05-06T03:35:19.109Z,63.60
2019-05-06T03:37:27.980Z,63.60
2019-05-06T03:39:56.860Z,63.60
2019-05-06T03:42:25.824Z,63.70
2019-05-06T03:44:59.303Z,63.80
2019-05-06T03:47:43.944Z,64.00
2019-05-06T03:50:13.372Z,63.80
2019-05-06T03:52:43.912Z,63.80
2019-05-06T03:55:13.939Z,63.80
2019-05-06T03:57:44.094Z,63.70
2019-05-06T04:00:16.014Z,63.70
2019-05-06T04:02:45.634Z,63.80
2019-05-06T04:05:14.627Z,63.80
2019-05-06T04:07:45.996Z,63.90
2019-05-06T04:10:16.250Z,63.80
2019-05-06T04:12:45.338Z,63.90
2019-05-06T04:15:14.425Z,63.70
2019-05-06T04:17:53.298Z,63.80
2019-05-06T04:20:28.751Z,63.80
2019-05-06T04:23:06.471Z,63.80
2019-05-06T04:25:57.195Z,63.90
2019-05-06T04:28:28.977Z,63.90
2019-05-06T04:30:58.748Z,64.00
2019-05-06T04:33:27.641Z,64.00
2019-05-06T04:35:56.957Z,64.00
2019-05-06T04:38:26.942Z,64.10
2019-05-06T04:40:55.951Z,64.20
2019-05-06T04:43:26.717Z,64.10
2019-05-06T04:45:56.021Z,64.10
2019-05-06T04:48:25.239Z,64.10
2019-05-06T04:50:54.632Z,64.10
2019-05-06T04:53:27.015Z,63.90
2019-05-06T04:55:56.823Z,64.00
2019-05-06T04:58:27.021Z,63.70
2019-05-06T05:00:56.218Z,64.10
2019-05-06T05:03:25.483Z,64.10
2019-05-06T05:05:54.509Z,64.20
2019-05-06T05:08:36.668Z,64.20
2019-05-06T05:11:22.661Z,64.20
2019-05-06T05:14:02.969Z,64.50
2019-05-06T05:16:41.986Z,64.10
2019-05-06T05:19:32.686Z,64.20
2019-05-06T05:22:08.370Z,64.10
2019-05-06T05:24:37.951Z,64.70
2019-05-06T05:27:07.380Z,64.10
2019-05-06T05:29:36.807Z,64.20
2019-05-06T05:32:06.080Z,64.20
2019-05-06T05:34:39.828Z,63.90
2019-05-06T05:37:06.235Z,63.80
2019-05-06T05:39:36.181Z,63.90
2019-05-06T05:42:22.089Z,64.20
2019-05-06T05:44:52.766Z,64.40
2019-05-06T05:47:22.154Z,64.40
2019-05-06T05:50:09.274Z,64.30
2019-05-06T05:52:38.577Z,64.10
2019-05-06T05:55:07.974Z,64.30
2019-05-06T05:57:37.271Z,64.60
2019-05-06T06:00:06.912Z,64.50
2019-05-06T06:02:36.029Z,64.30
2019-05-06T06:05:05.880Z,64.20
2019-05-06T06:07:34.832Z,64.30
2019-05-06T06:10:22.555Z,64.40
2019-05-06T06:12:52.817Z,64.40
2019-05-06T06:15:35.544Z,64.40
2019-05-06T06:18:29.728Z,64.40
2019-05-06T06:21:21.962Z,64.30
2019-05-06T06:23:52.885Z,64.30
2019-05-06T06:26:22.745Z,64.30
2019-05-06T06:28:52.676Z,64.40
2019-05-06T06:31:33.109Z,64.50
2019-05-06T06:34:07.802Z,64.60
2019-05-06T06:36:55.175Z,65.50
2019-05-06T06:39:28.995Z,64.60
2019-05-06T06:41:58.511Z,64.40
2019-05-06T06:44:30.377Z,65.10
2019-05-06T06:47:02.073Z,64.20
2019-05-06T06:49:32.750Z,64.20
2019-05-06T06:52:02.711Z,64.30
2019-05-06T06:54:32.687Z,64.40
2019-05-06T06:57:09.428Z,64.50
2019-05-06T06:59:58.901Z,64.60
2019-05-06T07:02:37.286Z,65.30
2019-05-06T07:05:38.470Z,65.00
2019-05-06T07:08:07.491Z,65.00
2019-05-06T07:10:46.106Z,65.00
2019-05-06T07:13:16.631Z,65.00
2019-05-06T07:15:46.127Z,64.90
2019-05-06T07:18:15.223Z,64.70
2019-05-06T07:21:05.185Z,64.80
2019-05-06T07:23:35.009Z,64.60
2019-05-06T07:26:04.052Z,64.60
2019-05-06T07:28:32.994Z,64.80
2019-05-06T07:31:17.494Z,64.80
2019-05-06T07:33:33.489Z,64.50
2019-05-06T07:36:03.057Z,64.70
2019-05-06T07:38:32.749Z,64.70
2019-05-06T07:41:08.727Z,64.80
2019-05-06T07:44:12.980Z,64.70
2019-05-06T07:47:13.293Z,64.40
2019-05-06T07:49:43.240Z,64.20
2019-05-06T07:52:12.446Z,63.90
2019-05-06T07:54:42.484Z,63.80
2019-05-06T07:57:12.729Z,64.00
2019-05-06T07:59:42.969Z,64.00
2019-05-06T08:02:13.106Z,64.20
2019-05-06T08:04:44.748Z,63.10
2019-05-06T08:07:14.160Z,63.30
2019-05-06T08:09:44.327Z,63.10
2019-05-06T08:12:13.716Z,63.10
2019-05-06T08:14:43.536Z,62.80
2019-05-06T08:17:26.267Z,62.70
2019-05-06T08:19:55.149Z,63.90
2019-05-06T08:22:45.595Z,64.10
2019-05-06T08:25:15.159Z,64.20
2019-05-06T08:27:44.309Z,64.20
2019-05-06T08:30:13.959Z,64.30
2019-05-06T08:32:43.279Z,64.40
2019-05-06T08:35:13.601Z,64.60
2019-05-06T08:37:42.747Z,65.00
2019-05-06T08:40:12.878Z,65.10
2019-05-06T08:42:42.637Z,64.90
2019-05-06T08:45:12.934Z,64.90
2019-05-06T08:47:42.773Z,64.80
2019-05-06T08:50:32.557Z,65.10
2019-05-06T08:53:23.964Z,65.20
2019-05-06T08:55:52.954Z,65.10
2019-05-06T08:58:24.901Z,65.10
2019-05-06T09:01:05.087Z,65.10
2019-05-06T09:03:34.215Z,65.10
2019-05-06T09:06:03.342Z,65.10
2019-05-06T09:08:32.532Z,65.40
2019-05-06T09:11:03.069Z,65.60
2019-05-06T09:13:32.677Z,64.60
2019-05-06T09:16:02.625Z,64.60
2019-05-06T09:18:32.913Z,64.40
2019-05-06T09:21:02.940Z,64.00
2019-05-06T09:23:32.726Z,63.90
2019-05-06T09:26:03.342Z,63.90
2019-05-06T09:28:38.419Z,65.00
2019-05-06T09:31:18.061Z,65.30
2019-05-06T09:33:56.373Z,65.40
2019-05-06T09:36:39.850Z,65.40
2019-05-06T09:38:56.691Z,65.50
2019-05-06T09:41:25.518Z,65.70
2019-05-06T09:43:54.701Z,65.70
2019-05-06T09:46:25.248Z,65.80
2019-05-06T09:49:12.752Z,64.90
2019-05-06T09:51:42.477Z,64.90
2019-05-06T09:54:32.155Z,64.70
2019-05-06T09:57:08.430Z,64.70
2019-05-06T09:59:37.626Z,64.60
2019-05-06T10:02:07.001Z,64.20
2019-05-06T10:04:36.023Z,64.10
2019-05-06T10:07:07.795Z,63.90
2019-05-06T10:09:36.816Z,63.80
2019-05-06T10:12:05.974Z,63.80
2019-05-06T10:14:35.419Z,63.90
2019-05-06T10:17:04.649Z,64.10
2019-05-06T10:19:53.019Z,64.30
2019-05-06T10:22:23.316Z,64.50
2019-05-06T10:24:52.381Z,64.90
2019-05-06T10:27:22.737Z,64.70
2019-05-06T10:30:02.997Z,64.50
2019-05-06T10:32:36.680Z,64.30
2019-05-06T10:35:06.745Z,64.30
2019-05-06T10:37:45.363Z,64.20
2019-05-06T10:40:22.850Z,64.00
2019-05-06T10:43:02.780Z,63.70
2019-05-06T10:45:32.685Z,63.60
2019-05-06T10:48:02.475Z,63.70
2019-05-06T10:50:35.314Z,63.60
2019-05-06T10:53:23.049Z,63.50
2019-05-06T10:55:53.751Z,63.50
2019-05-06T10:58:23.299Z,63.40
2019-05-06T11:01:07.408Z,63.30
2019-05-06T11:03:36.530Z,63.30
2019-05-06T11:06:05.555Z,63.10
2019-05-06T11:08:34.477Z,62.60
2019-05-06T11:11:14.807Z,63.00
2019-05-06T11:13:34.764Z,62.90
2019-05-06T11:16:04.417Z,62.70
2019-05-06T11:18:33.787Z,62.20
2019-05-06T11:21:03.435Z,61.90
2019-05-06T11:23:33.755Z,61.30
2019-05-06T11:26:03.812Z,61.10
2019-05-06T11:28:45.990Z,61.60
2019-05-06T11:31:33.720Z,61.80
2019-05-06T11:34:25.884Z,63.70
2019-05-06T11:37:14.991Z,64.40
2019-05-06T11:39:44.683Z,64.80
2019-05-06T11:42:28.096Z,65.20
2019-05-06T11:44:44.348Z,65.30
2019-05-06T11:47:13.321Z,65.40
2019-05-06T11:49:44.071Z,65.30
2019-05-06T11:52:13.080Z,65.10
2019-05-06T11:54:42.447Z,64.00
2019-05-06T11:57:12.512Z,64.10
2019-05-06T11:59:43.327Z,64.10
2019-05-06T12:02:15.025Z,64.00
2019-05-06T12:04:43.779Z,63.90
2019-05-06T12:07:15.853Z,63.60
2019-05-06T12:09:44.023Z,63.20
2019-05-06T12:12:13.060Z,64.60
2019-05-06T12:14:42.902Z,64.70
2019-05-06T12:17:12.782Z,65.20
2019-05-06T12:19:43.238Z,65.90
2019-05-06T12:22:12.859Z,66.20
2019-05-06T12:24:43.095Z,66.30
2019-05-06T12:27:16.868Z,66.40
2019-05-06T12:29:46.094Z,66.30
2019-05-06T12:32:27.861Z,66.40
2019-05-06T12:34:56.948Z,65.60
2019-05-06T12:37:27.362Z,66.30
2019-05-06T12:39:58.918Z,65.60
2019-05-06T12:42:33.199Z,65.40
2019-05-06T12:45:18.757Z,65.30
2019-05-06T12:48:06.747Z,65.40
2019-05-06T12:50:36.486Z,65.40
2019-05-06T12:53:05.380Z,65.40
2019-05-06T12:55:34.146Z,65.40
2019-05-06T12:58:03.106Z,65.50
2019-05-06T13:00:33.733Z,65.70
2019-05-06T13:03:02.994Z,65.60
2019-05-06T13:05:32.370Z,65.60
2019-05-06T13:08:05.565Z,65.40
2019-05-06T13:10:33.516Z,65.30
2019-05-06T13:13:04.553Z,65.10
2019-05-06T13:15:33.573Z,65.50
2019-05-06T13:18:06.972Z,65.80
2019-05-06T13:20:34.826Z,66.30
2019-05-06T13:23:35.044Z,66.70
2019-05-06T13:26:03.503Z,66.80
2019-05-06T13:28:34.906Z,66.70
2019-05-06T13:31:15.842Z,66.80
2019-05-06T13:33:44.259Z,66.60
2019-05-06T13:36:13.388Z,66.30
2019-05-06T13:38:42.742Z,66.30
2019-05-06T13:41:12.741Z,66.30
2019-05-06T13:43:46.379Z,66.40
2019-05-06T13:46:23.482Z,66.50
2019-05-06T13:49:02.802Z,66.40
2019-05-06T13:51:32.527Z,66.40
2019-05-06T13:54:02.547Z,65.90
2019-05-06T13:56:33.310Z,65.60
2019-05-06T13:59:05.088Z,65.70
2019-05-06T14:01:45.188Z,65.60
2019-05-06T14:04:14.517Z,65.70
2019-05-06T14:06:44.322Z,65.60
2019-05-06T14:09:28.408Z,65.50
2019-05-06T14:11:44.529Z,65.40
2019-05-06T14:14:13.801Z,65.20
2019-05-06T14:16:42.937Z,65.10
2019-05-06T14:19:13.183Z,65.20
2019-05-06T14:21:43.272Z,65.50
2019-05-06T14:24:13.405Z,65.90
2019-05-06T14:26:48.736Z,66.00
2019-05-06T14:29:25.964Z,66.10
2019-05-06T14:31:55.203Z,66.20
2019-05-06T14:34:24.370Z,66.00
2019-05-06T14:36:53.634Z,66.00
2019-05-06T14:39:42.913Z,66.10
2019-05-06T14:41:57.780Z,66.10
2019-05-06T14:44:26.985Z,66.00
2019-05-06T14:47:24.009Z,66.00
2019-05-06T14:49:53.183Z,66.00
2019-05-06T14:52:22.777Z,65.80
2019-05-06T14:54:57.479Z,66.50
2019-05-06T14:57:27.159Z,65.70
2019-05-06T14:59:56.039Z,65.40
2019-05-06T15:02:27.401Z,65.20
2019-05-06T15:04:56.451Z,65.20
2019-05-06T15:07:25.746Z,65.30
2019-05-06T15:10:07.847Z,65.30
2019-05-06T15:12:26.600Z,65.20
2019-05-06T15:14:55.432Z,65.80
2019-05-06T15:17:24.599Z,65.40
2019-05-06T15:19:53.380Z,65.40
2019-05-06T15:22:22.902Z,65.20
2019-05-06T15:24:53.592Z,65.20
2019-05-06T15:27:22.940Z,65.30
2019-05-06T15:29:54.949Z,65.20
2019-05-06T15:32:28.380Z,65.20
2019-05-06T15:35:12.875Z,65.10
2019-05-06T15:37:53.681Z,65.00
2019-05-06T15:40:31.886Z,65.00
2019-05-06T15:42:54.595Z,65.00
2019-05-06T15:45:23.529Z,65.30
2019-05-06T15:47:52.593Z,66.40
2019-05-06T15:50:23.158Z,66.60
2019-05-06T15:52:53.841Z,66.60
2019-05-06T15:55:23.270Z,66.70
2019-05-06T15:57:52.631Z,66.80
2019-05-06T16:00:23.353Z,66.80
2019-05-06T16:03:12.922Z,66.70
2019-05-06T16:05:43.905Z,66.70
2019-05-06T16:08:12.866Z,66.70
2019-05-06T16:10:51.812Z,66.80
2019-05-06T16:13:12.944Z,66.80
2019-05-06T16:15:42.526Z,66.80
2019-05-06T16:18:12.910Z,66.70
2019-05-06T16:20:42.468Z,66.90
2019-05-06T16:23:23.312Z,67.20
2019-05-06T16:26:12.354Z,67.40
2019-05-06T16:28:41.719Z,67.40
2019-05-06T16:31:13.019Z,67.40
2019-05-06T16:33:43.057Z,67.30
2019-05-06T16:36:13.155Z,67.30
2019-05-06T16:38:42.898Z,67.30
2019-05-06T16:41:13.879Z,67.30
2019-05-06T16:43:42.898Z,67.30
2019-05-06T16:46:12.658Z,67.20
2019-05-06T16:48:45.119Z,67.20
2019-05-06T16:51:12.661Z,67.00
2019-05-06T16:53:42.969Z,66.90
2019-05-06T16:56:27.448Z,66.80
2019-05-06T16:58:58.868Z,66.70
2019-05-06T17:01:29.867Z,66.70
2019-05-06T17:04:08.653Z,66.70
2019-05-06T17:06:39.280Z,66.90
2019-05-06T17:09:18.405Z,66.90
2019-05-06T17:11:42.646Z,67.10
2019-05-06T17:14:12.418Z,67.10
2019-05-06T17:16:42.365Z,67.10
2019-05-06T17:19:12.843Z,67.10
2019-05-06T17:21:42.458Z,67.10
2019-05-06T17:24:13.019Z,67.10
2019-05-06T17:26:42.791Z,67.10
2019-05-06T17:29:19.567Z,66.40
2019-05-06T17:32:06.453Z,67.10
2019-05-06T17:34:39.006Z,67.00
2019-05-06T17:37:36.703Z,66.90
2019-05-06T17:40:10.080Z,66.80
2019-05-06T17:42:35.887Z,66.90
2019-05-06T17:45:25.104Z,66.80
2019-05-06T17:47:57.791Z,66.90
2019-05-06T17:50:27.194Z,67.00
2019-05-06T17:52:57.662Z,67.10
2019-05-06T17:55:27.620Z,67.40
2019-05-06T17:57:56.791Z,67.30
2019-05-06T18:00:26.003Z,67.20
2019-05-06T18:02:55.154Z,67.20
2019-05-06T18:05:24.365Z,67.20
2019-05-06T18:07:53.276Z,67.30
2019-05-06T18:10:22.785Z,67.30
2019-05-06T18:12:53.162Z,67.40
2019-05-06T18:15:22.653Z,67.40
2019-05-06T18:17:52.487Z,67.30
2019-05-06T18:20:22.189Z,67.40
2019-05-06T18:22:52.481Z,67.40
2019-05-06T18:25:23.028Z,67.50
2019-05-06T18:27:52.712Z,67.40
2019-05-06T18:30:31.845Z,67.50
2019-05-06T18:32:53.067Z,67.40
2019-05-06T18:35:23.048Z,67.50
2019-05-06T18:37:52.384Z,67.50
2019-05-06T18:40:23.234Z,67.60
2019-05-06T18:42:52.513Z,67.50
2019-05-06T18:45:22.075Z,67.50
2019-05-06T18:47:53.174Z,67.60
2019-05-06T18:50:25.431Z,67.60
2019-05-06T18:52:55.139Z,67.50
2019-05-06T18:55:24.416Z,67.50
2019-05-06T18:57:53.780Z,67.60
2019-05-06T19:00:23.120Z,67.60
2019-05-06T19:02:53.259Z,67.60
2019-05-06T19:05:27.873Z,67.60
2019-05-06T19:07:57.038Z,67.60
2019-05-06T19:10:29.540Z,67.60
2019-05-06T19:12:58.469Z,67.70
2019-05-06T19:15:28.761Z,67.60
2019-05-06T19:17:57.862Z,67.70
2019-05-06T19:20:27.072Z,67.80
2019-05-06T19:22:56.245Z,67.70
2019-05-06T19:25:26.651Z,67.70
2019-05-06T19:27:55.992Z,67.60
2019-05-06T19:30:25.196Z,67.50
2019-05-06T19:32:54.151Z,67.60
2019-05-06T19:35:23.232Z,67.60
2019-05-06T19:37:52.159Z,67.60
2019-05-06T19:40:22.903Z,67.50
2019-05-06T19:42:53.284Z,67.50
2019-05-06T19:45:22.523Z,67.80
2019-05-06T19:47:53.616Z,67.80
2019-05-06T19:50:25.697Z,67.90
2019-05-06T19:52:53.532Z,67.80
2019-05-06T19:55:23.172Z,67.70
2019-05-06T19:57:52.677Z,67.90
2019-05-06T20:00:22.860Z,67.90
2019-05-06T20:02:52.221Z,67.90
2019-05-06T20:05:31.251Z,67.90
2019-05-06T20:08:13.370Z,68.10
2019-05-06T20:10:56.201Z,68.10
2019-05-06T20:13:25.165Z,68.10
2019-05-06T20:15:54.103Z,68.10
2019-05-06T20:18:23.483Z,68.00
2019-05-06T20:20:52.892Z,68.20
2019-05-06T20:23:23.191Z,68.20
2019-05-06T20:25:52.283Z,68.20
2019-05-06T20:28:22.756Z,68.30
2019-05-06T20:30:52.887Z,68.40
2019-05-06T20:33:22.531Z,68.50
2019-05-06T20:35:52.772Z,68.50
2019-05-06T20:38:23.171Z,68.60
2019-05-06T20:40:52.784Z,68.40
2019-05-06T20:43:23.984Z,68.40
2019-05-06T20:45:52.646Z,68.50
2019-05-06T20:48:23.503Z,68.40
2019-05-06T20:50:52.861Z,68.60
2019-05-06T20:53:23.194Z,68.60
2019-05-06T20:55:53.360Z,68.60
2019-05-06T20:58:23.006Z,68.50
2019-05-06T21:00:52.349Z,68.40
2019-05-06T21:03:22.269Z,68.30
2019-05-06T21:05:51.595Z,68.30
2019-05-06T21:08:22.121Z,68.30
2019-05-06T21:10:52.858Z,68.30
2019-05-06T21:13:29.424Z,68.40
2019-05-06T21:15:53.259Z,68.30
2019-05-06T21:18:22.915Z,69.00
2019-05-06T21:20:52.304Z,68.30
2019-05-06T21:23:22.729Z,68.10
2019-05-06T21:25:52.351Z,68.20
2019-05-06T21:28:23.818Z,68.10
2019-05-06T21:30:52.916Z,68.20
2019-05-06T21:33:22.278Z,68.20
2019-05-06T21:35:52.349Z,68.30
2019-05-06T21:38:22.710Z,68.30
2019-05-06T21:40:52.499Z,68.30
2019-05-06T21:43:22.659Z,68.40
2019-05-06T21:45:53.966Z,68.60
2019-05-06T21:48:23.260Z,68.70
2019-05-06T21:50:52.374Z,69.40
2019-05-06T21:53:23.051Z,68.50
2019-05-06T21:55:52.596Z,68.60
2019-05-06T21:58:23.149Z,68.50
2019-05-06T22:01:19.394Z,68.40
2019-05-06T22:03:48.270Z,68.40
2019-05-06T22:06:17.345Z,68.30
2019-05-06T22:08:46.576Z,68.30
2019-05-06T22:11:15.818Z,68.30
2019-05-06T22:13:58.040Z,68.20
2019-05-06T22:16:15.545Z,68.20
2019-05-06T22:18:45.615Z,68.20
2019-05-06T22:21:23.777Z,68.10
2019-05-06T22:24:04.238Z,68.10
2019-05-06T22:26:32.523Z,68.20
2019-05-06T22:29:02.293Z,68.00
2019-05-06T22:31:33.135Z,68.20
2019-05-06T22:34:02.922Z,68.00
2019-05-06T22:36:32.409Z,68.00
2019-05-06T22:39:02.531Z,68.00
2019-05-06T22:41:32.603Z,68.00
2019-05-06T22:44:13.179Z,67.90
2019-05-06T22:46:33.288Z,67.90
2019-05-06T22:49:02.575Z,67.90
2019-05-06T22:51:32.329Z,67.90
2019-05-06T22:54:02.742Z,67.90
2019-05-06T22:56:32.599Z,68.00
2019-05-06T22:59:03.467Z,67.90
2019-05-06T23:01:44.500Z,67.80
2019-05-06T23:04:14.659Z,67.80
2019-05-06T23:06:43.644Z,67.90
2019-05-06T23:09:13.045Z,68.10
2019-05-06T23:11:42.496Z,68.30
2019-05-06T23:14:13.799Z,68.40
2019-05-06T23:16:42.721Z,68.40
2019-05-06T23:19:11.572Z,68.30
2019-05-06T23:21:43.101Z,68.40
2019-05-06T23:24:13.155Z,68.50
2019-05-06T23:26:43.716Z,68.60
2019-05-06T23:29:13.128Z,68.60
2019-05-06T23:31:42.579Z,68.60
2019-05-06T23:34:12.521Z,68.40
2019-05-06T23:37:26.700Z,68.50
2019-05-06T23:40:37.753Z,68.50
2019-05-06T23:43:43.042Z,68.60
2019-05-06T23:46:48.308Z,68.50
2019-05-06T23:49:53.332Z,68.60
2019-05-06T23:52:59.038Z,68.60
2019-05-06T23:56:04.258Z,68.60
2019-05-06T23:58:33.386Z,68.60
